Time;durP1;ratioP1;P1;durP2;ratioP2;P2;SDS_P1;SDS_P2;PMS_P1;PMS_P2;Temp;Humidity;BMP_temperature;BMP_pressure;BME280_temperature;BME280_humidity;BME280_pressure;Samples;Min_cycle;Max_cycle;Signal;HPM_P1;HPM_P2
2022/03/06 00:01:44;;;;;;;20.40;13.85;;;3.20;52.10;;;;;;5084110;28;20066;-50
2022/03/06 00:04:11;;;;;;;25.15;14.02;;;3.10;52.00;;;;;;5079757;28;20508;-47
2022/03/06 00:06:38;;;;;;;24.95;15.07;;;3.10;52.10;;;;;;5083266;28;20040;-50
2022/03/06 00:09:05;;;;;;;27.95;15.73;;;3.10;52.10;;;;;;5083557;28;20058;-50
2022/03/06 00:11:32;;;;;;;23.33;14.65;;;3.10;52.20;;;;;;5053638;28;20052;-49
2022/03/06 00:14:01;;;;;;;24.10;15.18;;;3.10;52.20;;;;;;5067108;28;20045;-47
2022/03/06 00:16:28;;;;;;;22.00;14.35;;;3.10;52.20;;;;;;5064043;28;20041;-46
2022/03/06 00:18:57;;;;;;;25.88;14.48;;;3.00;52.20;;;;;;5069812;28;20064;-52
2022/03/06 00:21:24;;;;;;;26.05;14.32;;;3.00;52.20;;;;;;5072185;28;20032;-47
2022/03/06 00:23:51;;;;;;;24.38;14.75;;;3.00;52.30;;;;;;5071805;28;20036;-52
2022/03/06 00:26:18;;;;;;;20.92;14.23;;;3.00;52.30;;;;;;5083627;28;20113;-51
2022/03/06 00:28:44;;;;;;;25.00;14.60;;;2.90;52.30;;;;;;5078200;28;20075;-47
2022/03/06 00:31:12;;;;;;;22.70;14.80;;;2.90;52.30;;;;;;5071923;28;20032;-47
2022/03/06 00:33:39;;;;;;;24.95;13.68;;;2.90;52.40;;;;;;5073892;28;20055;-51
2022/03/06 00:36:06;;;;;;;23.75;15.27;;;2.90;52.40;;;;;;5074740;28;20046;-47
2022/03/06 00:38:33;;;;;;;24.85;14.07;;;2.90;52.50;;;;;;5086351;28;20066;-47
2022/03/06 00:41:00;;;;;;;21.77;13.52;;;2.80;52.40;;;;;;5075541;28;20041;-47
2022/03/06 00:43:29;;;;;;;22.65;14.98;;;2.80;52.50;;;;;;5062935;28;20055;-48
2022/03/06 00:45:55;;;;;;;29.88;15.32;;;2.80;52.50;;;;;;5076626;28;20079;-48
2022/03/06 00:48:22;;;;;;;20.67;14.35;;;2.70;52.50;;;;;;5074007;28;20098;-47
2022/03/06 00:50:49;;;;;;;22.85;13.30;;;2.80;52.50;;;;;;5069778;28;20534;-50
2022/03/06 00:53:16;;;;;;;22.63;14.25;;;2.70;52.60;;;;;;5069555;28;20126;-51
2022/03/06 00:55:43;;;;;;;23.58;14.70;;;2.70;52.60;;;;;;5078109;28;20044;-49
2022/03/06 00:58:10;;;;;;;24.58;14.43;;;2.70;52.70;;;;;;5083353;28;20035;-50
2022/03/06 01:00:40;;;;;;;28.35;15.38;;;2.70;52.70;;;;;;5083835;28;20043;-47
2022/03/06 01:03:09;;;;;;;23.02;15.13;;;2.70;52.80;;;;;;5082313;28;20079;-55
2022/03/06 01:05:36;;;;;;;28.10;16.52;;;2.60;52.80;;;;;;5076926;28;20061;-49
2022/03/06 01:08:05;;;;;;;25.85;16.10;;;2.60;52.80;;;;;;5082919;28;20067;-49
2022/03/06 01:10:32;;;;;;;25.25;14.48;;;2.60;52.80;;;;;;5068728;28;20488;-48
2022/03/06 01:13:00;;;;;;;24.88;15.25;;;2.60;52.90;;;;;;5071960;28;20127;-47
2022/03/06 01:15:32;;;;;;;29.27;17.02;;;2.50;52.80;;;;;;5075480;28;20036;-46
2022/03/06 01:17:59;;;;;;;28.73;16.50;;;2.50;52.80;;;;;;5070865;28;20090;-51
2022/03/06 01:20:26;;;;;;;28.40;15.30;;;2.50;52.80;;;;;;5068081;28;20519;-48
2022/03/06 01:22:53;;;;;;;25.95;15.30;;;2.50;52.90;;;;;;5083829;28;20064;-47
2022/03/06 01:25:21;;;;;;;29.40;15.98;;;2.50;53.00;;;;;;5087602;28;20044;-47
2022/03/06 01:27:47;;;;;;;29.92;16.52;;;2.50;53.10;;;;;;5091479;28;20399;-50
2022/03/06 01:30:15;;;;;;;28.08;16.15;;;2.40;53.10;;;;;;5069815;28;20045;-47
2022/03/06 01:32:42;;;;;;;30.38;15.82;;;2.40;53.10;;;;;;5078142;28;20036;-50
2022/03/06 01:35:10;;;;;;;32.50;15.75;;;2.40;53.10;;;;;;5081624;28;20040;-46
2022/03/06 01:37:37;;;;;;;27.10;15.75;;;2.40;53.20;;;;;;5083945;28;20083;-51
2022/03/06 01:40:04;;;;;;;33.00;16.88;;;2.40;53.20;;;;;;5051769;28;20508;-47
2022/03/06 01:42:31;;;;;;;30.75;16.45;;;2.40;53.30;;;;;;5078971;28;20087;-48
2022/03/06 01:44:58;;;;;;;29.38;16.55;;;2.40;53.30;;;;;;5069955;28;20091;-49
2022/03/06 01:47:41;;;;;;;25.55;15.23;;;2.30;54.00;;;;;;5069486;28;20702;-51
2022/03/06 01:50:21;;;;;;;28.45;15.45;;;2.30;54.10;;;;;;5069665;28;20389;-47
2022/03/06 01:52:50;;;;;;;23.50;14.75;;;2.30;53.30;;;;;;5075290;28;20043;-50
2022/03/06 01:55:19;;;;;;;28.58;16.05;;;2.30;53.30;;;;;;5086586;28;20040;-49
2022/03/06 01:57:46;;;;;;;29.63;16.42;;;2.30;53.30;;;;;;5074893;28;20040;-48
2022/03/06 02:00:19;;;;;;;27.25;15.93;;;2.30;53.30;;;;;;5059703;28;20496;-47
2022/03/06 02:02:46;;;;;;;29.20;17.00;;;2.20;53.50;;;;;;5064216;28;20032;-48
2022/03/06 02:05:13;;;;;;;27.10;16.17;;;2.30;53.30;;;;;;5069577;28;20098;-50
2022/03/06 02:07:40;;;;;;;28.42;16.45;;;2.20;53.40;;;;;;5041953;28;20040;-47
2022/03/06 02:10:09;;;;;;;29.73;16.73;;;2.20;53.40;;;;;;5066093;28;20094;-48
2022/03/06 02:12:36;;;;;;;26.40;15.43;;;2.20;53.50;;;;;;5080807;28;20043;-49
2022/03/06 02:15:06;;;;;;;28.83;16.98;;;2.10;53.40;;;;;;5087287;28;20044;-50
2022/03/06 02:17:37;;;;;;;24.30;15.00;;;2.10;53.50;;;;;;5068170;28;20041;-52
2022/03/06 02:20:06;;;;;;;26.85;15.68;;;2.10;53.50;;;;;;5081568;28;20045;-50
2022/03/06 02:22:38;;;;;;;28.60;15.82;;;2.10;53.60;;;;;;5091767;28;20459;-52
2022/03/06 02:25:10;;;;;;;28.77;16.02;;;2.10;53.90;;;;;;5093941;28;20052;-47
2022/03/06 02:27:37;;;;;;;29.30;16.10;;;2.10;53.70;;;;;;5070428;28;20060;-48
2022/03/06 02:30:10;;;;;;;26.60;14.68;;;2.10;53.50;;;;;;5085235;28;20533;-50
2022/03/06 02:32:38;;;;;;;27.35;16.17;;;2.00;53.60;;;;;;5093512;28;20066;-47
2022/03/06 02:35:07;;;;;;;27.27;15.57;;;2.00;53.50;;;;;;5081902;28;20078;-49
2022/03/06 02:37:35;;;;;;;26.02;15.90;;;2.00;53.60;;;;;;5073277;28;20047;-47
2022/03/06 02:40:05;;;;;;;29.02;15.32;;;2.00;53.60;;;;;;5073697;28;20044;-48
2022/03/06 02:42:37;;;;;;;25.08;14.02;;;2.00;53.70;;;;;;5074006;28;20045;-47
2022/03/06 02:45:14;;;;;;;28.27;15.55;;;1.90;53.60;;;;;;5077837;28;20036;-50
2022/03/06 02:47:42;;;;;;;25.48;15.35;;;1.90;54.10;;;;;;5078926;28;20044;-48
2022/03/06 02:50:12;;;;;;;23.88;13.65;;;1.90;53.60;;;;;;5085126;28;20066;-49
2022/03/06 02:52:39;;;;;;;24.67;15.05;;;1.90;53.70;;;;;;5094197;28;20093;-47
2022/03/06 02:55:07;;;;;;;24.80;14.63;;;1.90;53.60;;;;;;5084210;28;20491;-51
2022/03/06 02:57:34;;;;;;;28.52;15.57;;;1.80;53.70;;;;;;5086993;28;20075;-51
2022/03/06 03:00:03;;;;;;;18.48;13.52;;;1.80;53.60;;;;;;5086877;28;20076;-47
2022/03/06 03:02:30;;;;;;;24.75;13.38;;;1.80;53.70;;;;;;5076110;28;20071;-51
2022/03/06 03:04:57;;;;;;;23.95;14.57;;;1.80;53.70;;;;;;5077347;28;20436;-48
2022/03/06 03:07:24;;;;;;;23.13;13.15;;;1.80;53.70;;;;;;5079277;28;20377;-47
2022/03/06 03:09:51;;;;;;;23.33;13.60;;;1.80;53.70;;;;;;5080151;28;20067;-48
2022/03/06 03:12:17;;;;;;;22.15;14.38;;;1.80;53.70;;;;;;5070446;28;20098;-49
2022/03/06 03:14:44;;;;;;;22.55;13.23;;;1.70;53.70;;;;;;5069733;28;20108;-51
2022/03/06 03:17:11;;;;;;;22.70;13.23;;;1.70;53.70;;;;;;5069372;28;20102;-48
2022/03/06 03:19:38;;;;;;;23.50;13.38;;;1.70;53.80;;;;;;5070561;28;20439;-51
2022/03/06 03:22:05;;;;;;;24.10;13.82;;;1.70;53.90;;;;;;5061310;28;20099;-47
2022/03/06 03:24:32;;;;;;;22.98;13.57;;;1.70;53.90;;;;;;5069137;28;20087;-46
2022/03/06 03:26:59;;;;;;;21.77;12.80;;;1.60;53.80;;;;;;5073064;28;20036;-49
2022/03/06 03:29:25;;;;;;;23.35;13.48;;;1.60;53.90;;;;;;5087314;28;20040;-46
2022/03/06 03:31:52;;;;;;;29.42;13.82;;;1.60;54.00;;;;;;5080617;28;20036;-46
2022/03/06 03:34:21;;;;;;;21.33;14.18;;;1.60;54.10;;;;;;5065328;28;20565;-49
2022/03/06 03:36:48;;;;;;;22.27;12.65;;;1.70;54.30;;;;;;5077056;28;20496;-49
2022/03/06 03:39:15;;;;;;;25.88;14.15;;;1.60;54.10;;;;;;5071321;28;20070;-54
2022/03/06 03:41:47;;;;;;;20.65;12.23;;;1.60;54.30;;;;;;5069485;28;20496;-51
2022/03/06 03:44:13;;;;;;;21.38;13.30;;;1.60;54.80;;;;;;5073030;28;20052;-50
2022/03/06 03:46:40;;;;;;;25.38;14.27;;;1.60;54.60;;;;;;5080930;28;20507;-50
2022/03/06 03:49:07;;;;;;;24.90;12.77;;;1.60;54.60;;;;;;5071813;28;20052;-47
2022/03/06 03:51:34;;;;;;;23.95;13.48;;;1.60;54.60;;;;;;5070790;28;20037;-49
2022/03/06 03:54:03;;;;;;;22.98;14.30;;;1.60;54.60;;;;;;5082156;28;20052;-47
2022/03/06 03:56:33;;;;;;;23.30;12.95;;;1.60;54.60;;;;;;5083942;28;20044;-49
2022/03/06 03:59:00;;;;;;;22.88;13.48;;;1.60;54.70;;;;;;5092680;28;20499;-48
2022/03/06 04:01:26;;;;;;;22.83;13.48;;;1.60;54.50;;;;;;5067818;28;20036;-46
2022/03/06 04:03:58;;;;;;;22.25;13.48;;;1.60;54.50;;;;;;5084885;28;20041;-50
2022/03/06 04:06:25;;;;;;;21.95;11.95;;;1.60;54.70;;;;;;5089760;28;20044;-49
2022/03/06 04:08:52;;;;;;;21.23;12.73;;;1.60;54.60;;;;;;5075452;28;20500;-47
2022/03/06 04:11:19;;;;;;;21.38;12.93;;;1.60;54.60;;;;;;5085235;28;20098;-47
2022/03/06 04:13:46;;;;;;;25.10;14.32;;;1.50;54.50;;;;;;5083996;28;20048;-50
2022/03/06 04:16:12;;;;;;;22.20;14.20;;;1.50;54.60;;;;;;5079864;28;20454;-48
2022/03/06 04:18:39;;;;;;;22.00;12.75;;;1.50;54.60;;;;;;5071849;28;20500;-52
2022/03/06 04:21:06;;;;;;;21.23;12.88;;;1.50;54.80;;;;;;5072906;28;20253;-47
2022/03/06 04:23:32;;;;;;;21.77;12.63;;;1.50;54.90;;;;;;5081489;28;20053;-49
2022/03/06 04:25:59;;;;;;;22.83;13.35;;;1.50;54.90;;;;;;5091873;28;20078;-48
2022/03/06 04:28:26;;;;;;;25.23;13.82;;;1.50;54.90;;;;;;5073174;28;20040;-49
2022/03/06 04:30:53;;;;;;;22.10;13.30;;;1.50;54.90;;;;;;5079847;28;20033;-47
2022/03/06 04:33:24;;;;;;;26.80;12.98;;;1.50;54.90;;;;;;5088803;28;20040;-47
2022/03/06 04:35:51;;;;;;;20.50;13.13;;;1.50;54.90;;;;;;5084605;28;20033;-46
2022/03/06 04:38:18;;;;;;;25.13;12.63;;;1.50;54.80;;;;;;5062994;28;20075;-51
2022/03/06 04:40:46;;;;;;;19.80;12.57;;;1.50;54.70;;;;;;5074356;28;20048;-47
2022/03/06 04:43:13;;;;;;;19.48;11.88;;;1.50;54.60;;;;;;5075935;28;20040;-47
2022/03/06 04:45:40;;;;;;;21.33;12.85;;;1.50;54.60;;;;;;5070295;28;20401;-51
2022/03/06 04:48:07;;;;;;;20.88;11.90;;;1.40;54.60;;;;;;5067470;28;20101;-48
2022/03/06 04:50:33;;;;;;;17.55;11.77;;;1.40;54.60;;;;;;5053582;28;20053;-47
2022/03/06 04:53:00;;;;;;;18.65;11.15;;;1.40;54.70;;;;;;5083424;28;20093;-46
2022/03/06 04:55:27;;;;;;;18.50;12.00;;;1.40;54.70;;;;;;5091441;28;20090;-48
2022/03/06 04:57:56;;;;;;;19.90;12.80;;;1.40;54.80;;;;;;5076116;28;20036;-49
2022/03/06 05:00:23;;;;;;;19.70;12.18;;;1.50;54.90;;;;;;5082283;28;20037;-52
2022/03/06 05:02:50;;;;;;;20.98;13.57;;;1.40;54.90;;;;;;5091598;28;20044;-48
2022/03/06 05:05:17;;;;;;;17.80;11.68;;;1.30;54.80;;;;;;5057278;28;20392;-53
2022/03/06 05:07:44;;;;;;;18.77;12.35;;;1.30;54.90;;;;;;5082408;28;20039;-50
2022/03/06 05:10:10;;;;;;;18.15;11.63;;;1.30;54.90;;;;;;5075894;28;20512;-47
2022/03/06 05:12:40;;;;;;;20.52;12.38;;;1.30;54.90;;;;;;5071347;28;20521;-48
2022/03/06 05:15:09;;;;;;;18.48;11.88;;;1.30;55.00;;;;;;5079982;28;20496;-52
2022/03/06 05:17:37;;;;;;;21.27;12.68;;;1.30;55.10;;;;;;5075202;28;20045;-48
2022/03/06 05:20:06;;;;;;;24.00;12.38;;;1.30;55.10;;;;;;5082026;28;20044;-47
2022/03/06 05:22:33;;;;;;;22.10;12.18;;;1.30;55.10;;;;;;5091363;28;20044;-49
2022/03/06 05:25:00;;;;;;;22.33;13.70;;;1.30;55.70;;;;;;5073878;28;20036;-51
2022/03/06 05:27:28;;;;;;;24.00;13.05;;;1.30;55.10;;;;;;5061977;28;20047;-47
2022/03/06 05:29:55;;;;;;;22.67;12.88;;;1.20;55.00;;;;;;5075201;28;20094;-47
2022/03/06 05:32:21;;;;;;;19.85;12.57;;;1.30;55.10;;;;;;5063943;28;20029;-53
2022/03/06 05:34:48;;;;;;;21.00;11.20;;;1.20;55.00;;;;;;5069526;28;20097;-47
2022/03/06 05:37:15;;;;;;;20.85;12.35;;;1.20;55.00;;;;;;5078044;28;20097;-48
2022/03/06 05:39:42;;;;;;;21.08;12.95;;;1.20;55.00;;;;;;5086695;28;20511;-51
2022/03/06 05:42:09;;;;;;;21.52;11.82;;;1.20;55.00;;;;;;5069069;28;20078;-50
2022/03/06 05:44:35;;;;;;;24.40;13.02;;;1.20;55.00;;;;;;5079992;28;20044;-48
2022/03/06 05:47:04;;;;;;;19.05;11.48;;;1.10;55.10;;;;;;5081948;28;20059;-52
2022/03/06 05:49:30;;;;;;;23.55;11.13;;;1.10;55.10;;;;;;5090464;28;20100;-52
2022/03/06 05:51:57;;;;;;;20.65;13.07;;;1.10;55.10;;;;;;5058099;28;20036;-47
2022/03/06 05:54:24;;;;;;;22.20;12.38;;;1.10;55.10;;;;;;5067359;28;20036;-46
2022/03/06 05:56:51;;;;;;;27.63;13.60;;;1.10;55.20;;;;;;5077716;28;20036;-47
2022/03/06 05:59:17;;;;;;;21.05;12.48;;;1.10;55.50;;;;;;5074751;28;20032;-50
2022/03/06 06:01:44;;;;;;;22.90;13.02;;;1.10;55.80;;;;;;5068290;28;20090;-46
2022/03/06 06:04:14;;;;;;;23.77;13.27;;;1.10;55.90;;;;;;5063157;28;20132;-46
2022/03/06 06:06:42;;;;;;;27.02;13.90;;;1.10;56.30;;;;;;5086366;28;20246;-50
2022/03/06 06:09:09;;;;;;;23.23;14.45;;;1.10;56.30;;;;;;5078926;28;20089;-47
2022/03/06 06:11:38;;;;;;;23.80;13.88;;;1.10;56.50;;;;;;5069592;28;20067;-50
2022/03/06 06:14:05;;;;;;;24.75;14.55;;;1.10;56.60;;;;;;5079743;28;20048;-49
2022/03/06 06:16:32;;;;;;;23.27;13.77;;;1.10;56.50;;;;;;5067549;28;20557;-49
2022/03/06 06:18:58;;;;;;;30.33;15.10;;;1.10;56.30;;;;;;5070719;28;20052;-48
2022/03/06 06:21:25;;;;;;;25.60;15.07;;;1.10;56.30;;;;;;5068889;28;20091;-48
2022/03/06 06:23:52;;;;;;;29.83;14.98;;;1.20;56.30;;;;;;5076777;28;20059;-49
2022/03/06 06:26:19;;;;;;;25.80;14.43;;;1.20;56.40;;;;;;5081782;28;20070;-47
2022/03/06 06:28:49;;;;;;;24.60;14.30;;;1.20;56.40;;;;;;5084840;28;20055;-50
2022/03/06 06:31:16;;;;;;;29.58;14.55;;;1.20;56.50;;;;;;5044903;28;20487;-51
2022/03/06 06:33:43;;;;;;;27.92;15.13;;;1.20;56.60;;;;;;5081850;28;20036;-47
2022/03/06 06:36:09;;;;;;;28.65;15.68;;;1.30;57.00;;;;;;5062081;28;20098;-47
2022/03/06 06:38:36;;;;;;;24.58;17.00;;;1.30;57.50;;;;;;5060433;28;20071;-49
2022/03/06 06:41:05;;;;;;;32.67;17.13;;;1.30;57.80;;;;;;5075869;28;20179;-49
2022/03/06 06:43:32;;;;;;;29.35;15.70;;;1.40;58.10;;;;;;5072336;28;20037;-47
2022/03/06 06:45:59;;;;;;;32.33;16.55;;;1.50;58.00;;;;;;5070193;28;20094;-46
2022/03/06 06:48:26;;;;;;;30.38;16.13;;;1.60;58.10;;;;;;5072971;28;20044;-47
2022/03/06 06:50:53;;;;;;;26.45;14.75;;;1.60;58.20;;;;;;5074785;28;20418;-46
2022/03/06 06:53:20;;;;;;;29.27;15.93;;;1.70;58.20;;;;;;5072882;28;20500;-49
2022/03/06 06:55:47;;;;;;;31.77;16.38;;;1.80;58.20;;;;;;5067130;28;20044;-46
2022/03/06 06:58:13;;;;;;;28.95;15.73;;;1.90;58.20;;;;;;5082378;28;20070;-46
2022/03/06 07:00:43;;;;;;;29.20;16.20;;;1.90;58.10;;;;;;5079861;28;20045;-49
2022/03/06 07:03:10;;;;;;;26.63;15.02;;;2.00;58.20;;;;;;5068275;28;20045;-49
2022/03/06 07:05:39;;;;;;;28.60;15.40;;;2.10;57.90;;;;;;5073463;28;20080;-46
2022/03/06 07:08:09;;;;;;;31.30;15.82;;;2.10;58.00;;;;;;5069556;28;20076;-50
2022/03/06 07:10:36;;;;;;;29.85;15.80;;;2.20;58.00;;;;;;5071711;28;20443;-50
2022/03/06 07:13:06;;;;;;;30.67;15.25;;;2.20;57.90;;;;;;5075697;28;20496;-54
2022/03/06 07:15:32;;;;;;;27.63;15.80;;;2.30;58.20;;;;;;5062584;28;20041;-50
2022/03/06 07:18:00;;;;;;;28.35;16.13;;;2.30;57.90;;;;;;5071903;28;20040;-52
2022/03/06 07:20:28;;;;;;;27.90;15.65;;;2.30;57.90;;;;;;5072811;28;20582;-51
2022/03/06 07:22:55;;;;;;;29.73;16.13;;;2.40;58.00;;;;;;5070931;28;20079;-52
2022/03/06 07:25:22;;;;;;;25.17;15.38;;;2.50;58.00;;;;;;5068295;28;20041;-52
2022/03/06 07:27:49;;;;;;;25.60;16.58;;;2.50;58.00;;;;;;5065693;28;20051;-49
2022/03/06 07:30:16;;;;;;;26.95;15.32;;;2.50;57.90;;;;;;5080347;28;20091;-51
2022/03/06 07:32:46;;;;;;;28.67;16.60;;;2.50;57.90;;;;;;5090589;28;20048;-51
2022/03/06 07:35:16;;;;;;;;;;;2.60;58.00;;;;;;5076408;28;20052;-53
2022/03/06 07:37:43;;;;;;;29.33;15.25;;;2.70;59.10;;;;;;5042550;28;19966;-54
2022/03/06 07:40:13;;;;;;;26.67;14.35;;;2.70;57.30;;;;;;5064918;28;20036;-51
2022/03/06 07:42:40;;;;;;;24.55;14.88;;;2.70;57.60;;;;;;5059806;28;20103;-49
2022/03/06 07:45:08;;;;;;;30.88;17.63;;;2.70;57.60;;;;;;5062481;28;20037;-52
2022/03/06 07:47:38;;;;;;;24.88;15.05;;;2.70;57.80;;;;;;5063477;28;20041;-52
2022/03/06 07:50:07;;;;;;;26.77;16.23;;;2.70;58.00;;;;;;5075394;28;20048;-53
2022/03/06 07:52:35;;;;;;;30.55;16.17;;;2.70;57.90;;;;;;5062178;28;20071;-53
2022/03/06 07:55:03;;;;;;;24.38;15.00;;;2.80;57.90;;;;;;5068551;28;20474;-53
2022/03/06 07:57:30;;;;;;;27.60;16.08;;;2.80;57.90;;;;;;5062703;28;20049;-52
2022/03/06 07:59:57;;;;;;;25.90;15.30;;;2.90;58.00;;;;;;5081113;28;20037;-50
2022/03/06 08:02:23;;;;;;;24.58;15.80;;;2.90;58.00;;;;;;5064106;28;20052;-49
2022/03/06 08:04:51;;;;;;;25.33;15.52;;;3.00;58.00;;;;;;5070160;28;20040;-54
2022/03/06 08:07:18;;;;;;;25.05;15.75;;;3.00;58.00;;;;;;5063325;28;20098;-49
2022/03/06 08:09:45;;;;;;;26.08;15.48;;;3.00;58.00;;;;;;5082669;28;20116;-53
2022/03/06 08:12:11;;;;;;;26.23;15.93;;;3.10;58.10;;;;;;5060208;28;20040;-49
2022/03/06 08:14:38;;;;;;;29.38;15.70;;;3.10;58.10;;;;;;5067144;28;20040;-52
2022/03/06 08:17:05;;;;;;;25.73;14.98;;;3.20;58.00;;;;;;5065364;28;20571;-49
2022/03/06 08:19:32;;;;;;;26.05;14.35;;;3.20;57.90;;;;;;5074133;28;20587;-52
2022/03/06 08:21:59;;;;;;;24.05;15.05;;;3.30;57.90;;;;;;5059559;28;20046;-54
2022/03/06 08:24:25;;;;;;;27.50;15.30;;;3.30;57.80;;;;;;5069307;28;20466;-51
2022/03/06 08:26:52;;;;;;;25.05;15.00;;;3.30;57.80;;;;;;5066223;28;20407;-53
2022/03/06 08:29:19;;;;;;;23.75;14.07;;;3.40;57.60;;;;;;5084123;28;20066;-50
2022/03/06 08:31:51;;;;;;;;;;;3.40;57.50;;;;;;5066845;28;20119;-53
2022/03/06 08:34:18;;;;;;;21.52;15.00;;;3.50;58.20;;;;;;5068251;28;19928;-49
2022/03/06 08:36:45;;;;;;;22.73;14.57;;;3.50;56.90;;;;;;5068166;28;20491;-50
2022/03/06 08:39:12;;;;;;;24.27;15.55;;;3.50;57.10;;;;;;5069400;28;20098;-53
2022/03/06 08:41:39;;;;;;;26.00;14.70;;;3.60;57.20;;;;;;5060566;28;20045;-49
2022/03/06 08:44:05;;;;;;;25.13;15.52;;;3.60;57.20;;;;;;5071608;28;20064;-53
2022/03/06 08:46:37;;;;;;;24.40;14.57;;;3.60;57.10;;;;;;5064799;28;20037;-50
2022/03/06 08:49:04;;;;;;;24.35;15.13;;;3.60;57.00;;;;;;5067626;28;20127;-50
2022/03/06 08:51:32;;;;;;;23.10;14.82;;;3.70;56.90;;;;;;5064153;28;20067;-53
2022/03/06 08:54:00;;;;;;;23.02;14.68;;;3.80;57.00;;;;;;5071464;28;20549;-51
2022/03/06 08:56:27;;;;;;;24.23;15.05;;;3.80;57.00;;;;;;5062087;28;20064;-50
2022/03/06 08:58:54;;;;;;;26.88;15.40;;;3.80;56.90;;;;;;5067600;28;20071;-50
2022/03/06 09:01:20;;;;;;;24.92;15.13;;;3.90;56.80;;;;;;5051788;28;20106;-54
2022/03/06 09:03:48;;;;;;;26.13;15.20;;;4.00;56.90;;;;;;5068670;28;20052;-49
2022/03/06 09:06:14;;;;;;;21.08;14.23;;;4.00;56.80;;;;;;5059293;28;20408;-52
2022/03/06 09:08:41;;;;;;;21.83;14.07;;;4.10;56.80;;;;;;5067261;28;20040;-52
2022/03/06 09:11:08;;;;;;;21.90;14.68;;;4.10;56.80;;;;;;5057875;28;20040;-53
2022/03/06 09:13:35;;;;;;;20.38;14.13;;;4.10;56.60;;;;;;5072395;28;20542;-52
2022/03/06 09:16:03;;;;;;;23.63;14.93;;;4.20;56.40;;;;;;5058066;28;20121;-53
2022/03/06 09:18:30;;;;;;;23.17;15.25;;;4.30;56.40;;;;;;5070201;28;20036;-53
2022/03/06 09:20:57;;;;;;;21.63;13.70;;;4.30;56.40;;;;;;5074475;28;20039;-63
2022/03/06 09:23:24;;;;;;;21.88;14.77;;;4.30;56.30;;;;;;5079064;28;20126;-52
2022/03/06 09:25:51;;;;;;;25.55;15.65;;;4.40;56.50;;;;;;5090875;28;20079;-51
2022/03/06 09:28:18;;;;;;;22.55;15.32;;;4.40;56.50;;;;;;5081257;28;20094;-49
2022/03/06 09:30:46;;;;;;;22.55;15.10;;;4.50;56.30;;;;;;5075350;28;20049;-51
2022/03/06 09:33:13;;;;;;;27.25;14.65;;;4.60;56.40;;;;;;5079024;28;20055;-54
2022/03/06 09:35:40;;;;;;;24.60;15.68;;;4.70;57.00;;;;;;5081169;28;20036;-49
2022/03/06 09:38:07;;;;;;;24.70;14.00;;;4.80;56.20;;;;;;5068835;28;20040;-50
2022/03/06 09:40:33;;;;;;;20.77;15.07;;;4.90;56.10;;;;;;5063242;28;20469;-52
2022/03/06 09:43:00;;;;;;;21.25;15.02;;;5.00;56.00;;;;;;5084351;28;20040;-45
2022/03/06 09:45:32;;;;;;;26.05;15.95;;;5.10;56.00;;;;;;5087776;28;20503;-46
2022/03/06 09:48:00;;;;;;;22.60;14.40;;;5.20;56.00;;;;;;5091467;28;20055;-49
2022/03/06 09:50:27;;;;;;;23.27;14.48;;;5.30;55.80;;;;;;5057299;28;20559;-46
2022/03/06 09:52:54;;;;;;;24.45;15.15;;;5.40;55.40;;;;;;5082754;28;20047;-46
2022/03/06 09:55:21;;;;;;;24.77;15.43;;;5.50;55.20;;;;;;5086674;28;20460;-48
2022/03/06 09:57:52;;;;;;;21.83;14.65;;;5.50;55.20;;;;;;5073908;28;20454;-50
2022/03/06 10:00:19;;;;;;;22.87;15.90;;;5.60;54.90;;;;;;5062844;28;20496;-47
2022/03/06 10:03:00;;;;;;;23.42;14.30;;;5.60;54.70;;;;;;5073135;28;20462;-45
2022/03/06 10:05:35;;;;;;;21.38;14.88;;;5.60;54.60;;;;;;5073297;28;20569;-50
2022/03/06 10:08:26;;;;;;;21.75;15.25;;;5.70;54.40;;;;;;5058005;28;20051;-51
2022/03/06 10:11:02;;;;;;;23.02;14.48;;;5.70;54.60;;;;;;5063073;28;20070;-49
2022/03/06 10:13:35;;;;;;;21.30;15.25;;;5.70;54.80;;;;;;5066742;28;20045;-47
2022/03/06 10:16:10;;;;;;;23.75;14.65;;;5.80;54.60;;;;;;5056037;28;20114;-49
2022/03/06 10:18:40;;;;;;;21.88;14.38;;;5.80;54.80;;;;;;5071887;28;20044;-48
2022/03/06 10:21:21;;;;;;;20.50;14.25;;;5.90;54.60;;;;;;5074710;28;20037;-46
2022/03/06 10:23:50;;;;;;;26.90;15.02;;;6.00;54.80;;;;;;5059057;28;20045;-45
2022/03/06 10:26:20;;;;;;;23.08;15.32;;;6.10;54.60;;;;;;5064325;28;20088;-47
2022/03/06 10:28:57;;;;;;;23.63;15.27;;;6.20;54.60;;;;;;5069803;28;20044;-49
2022/03/06 10:31:27;;;;;;;22.60;14.00;;;6.30;54.40;;;;;;5068584;28;20037;-46
2022/03/06 10:33:59;;;;;;;22.00;14.63;;;6.40;54.20;;;;;;5056533;28;20490;-46
2022/03/06 10:36:33;;;;;;;24.42;15.38;;;6.50;54.70;;;;;;5064649;28;20045;-46
2022/03/06 10:39:02;;;;;;;21.83;14.55;;;6.60;53.80;;;;;;5059093;28;20099;-52
2022/03/06 10:41:41;;;;;;;20.92;16.02;;;6.60;53.50;;;;;;5064243;28;20047;-46
2022/03/06 10:44:10;;;;;;;23.70;15.23;;;6.70;53.30;;;;;;5063080;28;20045;-48
2022/03/06 10:46:38;;;;;;;19.98;14.95;;;6.70;53.00;;;;;;5075324;28;20535;-49
2022/03/06 10:49:12;;;;;;;21.48;15.13;;;6.80;53.10;;;;;;5068671;28;20116;-48
2022/03/06 10:51:44;;;;;;;24.52;15.00;;;6.80;53.20;;;;;;5070023;28;20041;-45
2022/03/06 10:54:14;;;;;;;18.20;14.75;;;6.80;52.90;;;;;;5058531;28;20051;-46
2022/03/06 10:56:47;;;;;;;21.30;15.00;;;6.80;53.10;;;;;;5070116;28;20036;-46
2022/03/06 10:59:24;;;;;;;21.77;14.68;;;6.90;53.10;;;;;;5070257;28;20048;-46
2022/03/06 11:01:51;;;;;;;20.80;14.35;;;7.00;53.20;;;;;;5066400;28;20037;-51
2022/03/06 11:04:19;;;;;;;18.33;13.55;;;7.00;52.80;;;;;;5045617;28;20561;-46
2022/03/06 11:06:50;;;;;;;23.02;14.93;;;7.10;52.80;;;;;;5069043;28;20187;-44
2022/03/06 11:09:18;;;;;;;18.70;14.60;;;7.20;52.80;;;;;;5061354;28;20056;-46
2022/03/06 11:11:48;;;;;;;21.17;14.65;;;7.20;52.80;;;;;;5065785;28;20126;-44
2022/03/06 11:14:15;;;;;;;20.35;14.93;;;7.30;52.20;;;;;;5065124;28;20126;-46
2022/03/06 11:16:41;;;;;;;20.33;15.52;;;7.40;52.10;;;;;;5067823;28;20037;-45
2022/03/06 11:19:09;;;;;;;19.77;14.82;;;7.40;51.90;;;;;;5064542;28;20040;-50
2022/03/06 11:21:39;;;;;;;23.70;16.25;;;7.50;51.70;;;;;;5067930;28;20985;-52
2022/03/06 11:24:20;;;;;;;21.58;14.70;;;7.50;51.60;;;;;;5063959;28;20044;-47
2022/03/06 11:27:37;;;;;;;19.30;13.95;;;7.60;52.10;;;;;;5070778;28;20098;-48
2022/03/06 11:30:06;;;;;;;17.90;13.95;;;7.60;51.60;;;;;;5025443;28;20060;-45
2022/03/06 11:32:35;;;;;;;18.95;14.55;;;7.60;51.20;;;;;;5074451;28;20102;-49
2022/03/06 11:35:04;;;;;;;18.15;13.50;;;7.60;50.90;;;;;;5069514;28;20074;-49
2022/03/06 11:37:50;;;;;;;20.42;14.07;;;7.70;51.10;;;;;;5069593;28;20480;-50
2022/03/06 11:40:44;;;;;;;18.20;13.45;;;7.70;51.10;;;;;;5057537;28;20036;-46
2022/03/06 11:43:38;;;;;;;25.85;13.93;;;7.70;50.80;;;;;;5074352;28;20040;-55
2022/03/06 11:46:18;;;;;;;18.38;13.23;;;7.80;50.80;;;;;;5059694;28;20048;-52
2022/03/06 11:48:45;;;;;;;17.25;13.75;;;7.80;50.40;;;;;;5062426;28;20067;-45
2022/03/06 11:51:20;;;;;;;20.10;14.77;;;7.80;50.50;;;;;;5067697;28;20040;-49
2022/03/06 11:54:07;;;;;;;18.88;13.88;;;7.90;50.20;;;;;;5070687;28;20125;-46
2022/03/06 11:56:39;;;;;;;21.40;14.32;;;7.90;50.50;;;;;;5059669;28;20049;-48
2022/03/06 11:59:25;;;;;;;18.77;14.20;;;8.10;50.40;;;;;;5052458;28;20049;-45
2022/03/06 12:01:53;;;;;;;20.80;14.23;;;8.00;50.70;;;;;;5067692;28;20457;-45
2022/03/06 12:04:32;;;;;;;24.83;14.88;;;8.10;50.20;;;;;;5065311;28;20125;-45
2022/03/06 12:07:00;;;;;;;20.67;14.45;;;8.10;50.20;;;;;;5063975;28;20091;-46
2022/03/06 12:09:33;;;;;;;16.50;13.35;;;8.20;50.40;;;;;;5053453;28;20102;-50
2022/03/06 12:12:02;;;;;;;17.30;13.80;;;8.30;50.00;;;;;;5062646;28;20051;-50
2022/03/06 12:14:31;;;;;;;19.88;14.13;;;8.30;49.80;;;;;;5065473;28;20090;-47
2022/03/06 12:17:01;;;;;;;19.60;14.32;;;8.40;49.60;;;;;;5068200;28;20093;-51
2022/03/06 12:19:31;;;;;;;15.52;13.15;;;8.40;49.60;;;;;;5051193;28;20040;-46
2022/03/06 12:22:12;;;;;;;17.15;13.73;;;8.50;49.70;;;;;;5071583;28;20503;-51
2022/03/06 12:24:40;;;;;;;20.63;14.18;;;8.60;49.20;;;;;;5061959;28;20055;-46
2022/03/06 12:27:15;;;;;;;16.88;13.60;;;8.60;49.10;;;;;;5060946;28;20542;-46
2022/03/06 12:29:48;;;;;;;16.52;13.75;;;8.70;48.90;;;;;;5065642;28;20078;-45
2022/03/06 12:32:33;;;;;;;17.88;13.68;;;8.70;49.20;;;;;;5076758;28;20416;-49
2022/03/06 12:35:05;;;;;;;14.23;12.38;;;8.80;48.90;;;;;;5068540;28;20115;-48
2022/03/06 12:37:38;;;;;;;15.18;12.73;;;8.80;48.80;;;;;;5074550;28;20033;-45
2022/03/06 12:40:09;;;;;;;15.60;12.70;;;8.90;48.30;;;;;;5071947;28;20397;-48
2022/03/06 12:42:38;;;;;;;18.83;12.80;;;9.00;47.60;;;;;;5072192;28;20047;-46
2022/03/06 12:45:10;;;;;;;14.40;11.15;;;9.00;47.40;;;;;;5067274;28;20057;-45
2022/03/06 12:47:39;;;;;;;15.27;11.40;;;9.10;47.30;;;;;;5073149;28;20068;-46